Time;durP1;ratioP1;P1;durP2;ratioP2;P2;SDS_P1;SDS_P2;PMS_P1;PMS_P2;Temp;Humidity;BMP_temperature;BMP_pressure;BME280_temperature;BME280_humidity;BME280_pressure;Samples;Min_cycle;Max_cycle;Signal;HPM_P1;HPM_P2
2023/11/22 00:00:22;;;;;;;2.13;1.93;;;9.00;99.90;;;;;;5023990;28;20275;-58
2023/11/22 00:02:48;;;;;;;3.30;2.23;;;8.90;99.90;;;;;;5021969;28;20202;-58
2023/11/22 00:05:15;;;;;;;2.87;2.50;;;8.60;99.90;;;;;;5020181;28;20203;-57
2023/11/22 00:07:42;;;;;;;2.40;2.13;;;8.40;99.90;;;;;;5021098;28;20227;-58
2023/11/22 00:10:09;;;;;;;2.50;2.30;;;8.10;99.90;;;;;;5023652;28;20224;-57
2023/11/22 00:12:38;;;;;;;3.20;2.20;;;7.90;99.90;;;;;;5023408;28;20675;-57
2023/11/22 00:15:07;;;;;;;2.80;2.60;;;7.70;99.90;;;;;;5020209;28;20204;-57
2023/11/22 00:17:34;;;;;;;3.30;2.30;;;7.50;99.90;;;;;;5020283;28;20211;-58
2023/11/22 00:20:05;;;;;;;2.40;2.00;;;7.30;99.90;;;;;;5023425;28;20222;-58
2023/11/22 00:22:32;;;;;;;2.17;1.97;;;7.20;99.90;;;;;;5023725;28;20260;-57
2023/11/22 00:24:59;;;;;;;3.43;2.63;;;7.10;99.90;;;;;;5020006;28;20563;-58
2023/11/22 00:27:25;;;;;;;2.60;2.40;;;7.00;99.90;;;;;;5019525;28;20206;-57
2023/11/22 00:29:53;;;;;;;4.03;2.80;;;7.00;99.90;;;;;;5022106;28;20335;-58
2023/11/22 00:32:21;;;;;;;3.13;2.83;;;7.00;99.90;;;;;;5023393;28;20644;-57
2023/11/22 00:34:48;;;;;;;2.97;2.50;;;6.90;99.90;;;;;;5021449;28;20213;-57
2023/11/22 00:37:15;;;;;;;4.23;3.73;;;6.90;99.90;;;;;;5019981;28;20290;-58
2023/11/22 00:39:42;;;;;;;4.17;3.40;;;6.90;99.90;;;;;;5020524;28;20293;-56
2023/11/22 00:42:09;;;;;;;5.33;3.67;;;6.80;99.90;;;;;;5023145;28;20321;-58
2023/11/22 00:44:36;;;;;;;3.80;3.40;;;6.80;99.90;;;;;;5022907;28;20301;-58
2023/11/22 00:47:02;;;;;;;4.63;4.17;;;6.80;99.90;;;;;;5019647;28;20203;-58
2023/11/22 00:49:30;;;;;;;6.07;4.53;;;6.80;99.90;;;;;;5019843;28;20227;-58
2023/11/22 00:51:58;;;;;;;4.70;4.30;;;6.80;99.90;;;;;;5022430;28;20210;-58
2023/11/22 00:54:25;;;;;;;3.90;3.50;;;6.70;99.90;;;;;;5023147;28;20206;-57
2023/11/22 00:56:51;;;;;;;4.30;3.77;;;6.70;99.90;;;;;;5020764;28;20201;-57
2023/11/22 00:59:19;;;;;;;4.43;3.67;;;6.70;99.90;;;;;;5019996;28;20284;-57
2023/11/22 01:01:46;;;;;;;4.27;3.87;;;6.70;99.90;;;;;;5020433;28;20231;-57
2023/11/22 01:04:12;;;;;;;4.27;3.77;;;6.70;99.90;;;;;;5022776;28;20213;-57
2023/11/22 01:06:40;;;;;;;5.63;4.23;;;6.70;99.90;;;;;;5022368;28;20626;-57
2023/11/22 01:09:08;;;;;;;5.00;4.50;;;6.80;99.90;;;;;;5019429;28;20720;-58
2023/11/22 01:11:35;;;;;;;5.10;4.03;;;6.90;99.90;;;;;;5019696;28;20237;-58
2023/11/22 01:14:02;;;;;;;6.50;3.47;;;6.90;99.90;;;;;;5023471;28;20225;-58
2023/11/22 01:16:28;;;;;;;5.00;4.00;;;6.90;99.90;;;;;;5023336;28;20207;-58
2023/11/22 01:18:55;;;;;;;4.43;4.03;;;6.90;99.90;;;;;;5020431;28;20257;-58
2023/11/22 01:21:22;;;;;;;4.03;3.10;;;6.90;99.90;;;;;;5019452;28;20225;-57
2023/11/22 01:23:50;;;;;;;4.43;4.00;;;6.90;99.90;;;;;;5021099;28;20237;-57
2023/11/22 01:26:17;;;;;;;4.30;3.20;;;6.90;99.90;;;;;;5022682;28;20202;-57
2023/11/22 01:28:45;;;;;;;5.30;3.27;;;6.80;99.90;;;;;;5021724;28;20250;-58
2023/11/22 01:31:13;;;;;;;2.73;2.53;;;6.90;99.90;;;;;;5019396;28;20207;-58
2023/11/22 01:33:40;;;;;;;4.20;2.80;;;6.80;99.90;;;;;;5019874;28;20339;-58
2023/11/22 01:36:07;;;;;;;3.10;2.80;;;6.80;99.90;;;;;;5022496;28;20199;-58
2023/11/22 01:38:34;;;;;;;3.00;2.70;;;6.80;99.90;;;;;;5023259;28;20234;-59
2023/11/22 01:41:02;;;;;;;3.63;2.90;;;6.80;99.90;;;;;;5023118;28;20242;-55
2023/11/22 01:43:29;;;;;;;3.53;3.10;;;6.80;99.90;;;;;;5022918;28;20242;-59
2023/11/22 01:45:56;;;;;;;4.20;3.43;;;6.80;99.90;;;;;;5025346;28;20210;-56
2023/11/22 01:48:23;;;;;;;3.30;3.00;;;6.80;99.90;;;;;;5026461;28;20265;-57
2023/11/22 01:50:50;;;;;;;3.10;2.80;;;6.80;99.90;;;;;;5024576;28;20679;-58
2023/11/22 01:53:18;;;;;;;2.90;2.60;;;6.90;99.90;;;;;;5022861;28;20598;-58
2023/11/22 01:55:46;;;;;;;3.67;2.87;;;6.90;99.90;;;;;;5023457;28;20216;-58
2023/11/22 01:58:14;;;;;;;3.17;2.87;;;6.80;99.90;;;;;;5026462;28;20226;-58
2023/11/22 02:00:46;;;;;;;3.80;2.97;;;6.70;99.90;;;;;;5025667;28;20313;-57
2023/11/22 02:03:13;;;;;;;3.63;3.23;;;6.80;99.90;;;;;;5022429;28;20727;-58
2023/11/22 02:05:42;;;;;;;3.10;2.67;;;6.80;99.90;;;;;;5022545;28;20628;-58
2023/11/22 02:08:09;;;;;;;3.63;3.23;;;6.90;99.90;;;;;;5025542;28;20315;-58
2023/11/22 02:10:36;;;;;;;4.00;2.90;;;6.90;99.90;;;;;;5025824;28;20691;-57
2023/11/22 02:13:04;;;;;;;2.93;2.63;;;6.90;99.90;;;;;;5022366;28;20289;-58
2023/11/22 02:15:33;;;;;;;3.37;3.00;;;6.80;99.90;;;;;;5022492;28;20199;-58
2023/11/22 02:17:59;;;;;;;3.40;2.97;;;6.90;99.90;;;;;;5025060;28;20210;-58
2023/11/22 02:20:26;;;;;;;3.20;2.90;;;7.00;99.90;;;;;;5025836;28;20229;-58
2023/11/22 02:22:54;;;;;;;3.33;3.03;;;7.00;99.90;;;;;;5023685;28;20629;-59
2023/11/22 02:25:22;;;;;;;3.77;3.00;;;7.00;99.90;;;;;;5022330;28;20211;-59
2023/11/22 02:27:48;;;;;;;3.30;2.60;;;7.00;99.90;;;;;;5023562;28;20207;-59
2023/11/22 02:30:16;;;;;;;3.37;2.73;;;6.90;99.90;;;;;;5025800;28;20643;-57
2023/11/22 02:32:43;;;;;;;3.50;2.70;;;6.80;99.90;;;;;;5025012;28;20210;-59
2023/11/22 02:35:10;;;;;;;5.00;3.10;;;6.80;99.90;;;;;;5021990;28;20242;-57
2023/11/22 02:37:37;;;;;;;4.17;3.00;;;6.80;99.90;;;;;;5022119;28;20214;-58
2023/11/22 02:40:08;;;;;;;3.53;2.83;;;6.80;99.90;;;;;;5025205;28;20309;-58
2023/11/22 02:42:36;;;;;;;3.83;3.07;;;6.80;99.90;;;;;;5025555;28;20214;-59
2023/11/22 02:45:05;;;;;;;3.17;2.57;;;6.60;99.90;;;;;;5021968;28;20706;-58
2023/11/22 02:47:32;;;;;;;3.30;2.90;;;6.50;99.90;;;;;;5022447;28;20203;-58
2023/11/22 02:49:58;;;;;;;3.10;2.80;;;6.50;99.90;;;;;;5023620;28;20227;-58
2023/11/22 02:52:26;;;;;;;3.37;2.73;;;6.40;99.90;;;;;;5025211;28;20752;-59
2023/11/22 02:54:53;;;;;;;2.80;2.50;;;6.30;99.90;;;;;;5023622;28;20206;-59
2023/11/22 02:57:20;;;;;;;3.40;2.67;;;6.20;99.90;;;;;;5021880;28;20203;-59
2023/11/22 02:59:48;;;;;;;4.30;3.00;;;6.20;99.90;;;;;;5022643;28;20230;-58
2023/11/22 03:02:16;;;;;;;3.23;2.70;;;6.20;99.90;;;;;;5025102;28;20222;-59
2023/11/22 03:04:43;;;;;;;3.23;2.90;;;6.20;99.90;;;;;;5024297;28;20408;-58
2023/11/22 03:07:10;;;;;;;4.03;3.20;;;6.20;99.90;;;;;;5021744;28;20199;-58
2023/11/22 03:09:37;;;;;;;5.83;3.37;;;6.10;99.90;;;;;;5021338;28;20238;-58
2023/11/22 03:12:04;;;;;;;3.53;2.73;;;6.00;99.90;;;;;;5024410;28;20230;-58
2023/11/22 03:14:31;;;;;;;3.87;3.03;;;5.90;99.90;;;;;;5024684;28;20268;-61
2023/11/22 03:16:59;;;;;;;3.50;3.03;;;6.00;99.90;;;;;;5022443;28;20214;-59
2023/11/22 03:19:26;;;;;;;3.13;2.70;;;6.00;99.90;;;;;;5021426;28;20334;-57
2023/11/22 03:21:52;;;;;;;3.73;2.90;;;6.00;99.90;;;;;;5022571;28;20765;-57
2023/11/22 03:24:19;;;;;;;4.90;3.00;;;6.00;99.90;;;;;;5024990;28;20226;-57
2023/11/22 03:26:46;;;;;;;3.33;2.60;;;6.10;99.90;;;;;;5023683;28;20214;-58
2023/11/22 03:29:12;;;;;;;5.97;2.90;;;6.00;99.90;;;;;;5021235;28;20227;-58
2023/11/22 03:31:39;;;;;;;3.17;2.80;;;5.90;99.90;;;;;;5021056;28;20203;-57
2023/11/22 03:34:07;;;;;;;3.63;3.00;;;6.00;99.90;;;;;;5024733;28;20205;-58
2023/11/22 03:36:34;;;;;;;3.23;2.70;;;5.50;99.90;;;;;;5024318;28;20207;-57
2023/11/22 03:39:01;;;;;;;3.67;2.93;;;6.20;99.90;;;;;;5021620;28;20230;-56
2023/11/22 03:41:29;;;;;;;3.00;2.60;;;6.20;99.90;;;;;;5020922;28;20219;-56
2023/11/22 03:43:55;;;;;;;4.20;2.90;;;6.10;99.90;;;;;;5023012;28;20218;-58
2023/11/22 03:46:22;;;;;;;5.53;2.80;;;6.00;99.90;;;;;;5023995;28;20206;-57
2023/11/22 03:48:49;;;;;;;3.80;3.00;;;6.00;99.90;;;;;;5023371;28;20238;-57
2023/11/22 03:51:17;;;;;;;3.57;2.80;;;6.00;99.90;;;;;;5020869;28;20203;-57
2023/11/22 03:53:43;;;;;;;4.33;3.00;;;5.90;99.90;;;;;;5021087;28;20219;-57
2023/11/22 03:56:10;;;;;;;4.03;2.80;;;5.90;99.90;;;;;;5024442;28;20198;-59
2023/11/22 03:58:37;;;;;;;3.87;3.00;;;6.00;99.90;;;;;;5024574;28;20233;-58
2023/11/22 04:01:05;;;;;;;3.27;2.97;;;6.00;99.90;;;;;;5020503;28;20599;-58
2023/11/22 04:03:32;;;;;;;3.67;2.93;;;6.00;99.90;;;;;;5020877;28;20203;-59
2023/11/22 04:05:59;;;;;;;3.80;3.30;;;6.00;99.90;;;;;;5022655;28;20214;-59
2023/11/22 04:08:27;;;;;;;3.13;2.77;;;6.10;99.90;;;;;;5037806;22;20230;-61
2023/11/22 04:10:54;;;;;;;4.67;3.37;;;6.10;99.90;;;;;;5011348;28;20207;-61
2023/11/22 04:13:20;;;;;;;4.73;3.20;;;6.10;99.90;;;;;;5001598;28;20227;-61
2023/11/22 04:15:47;;;;;;;3.40;3.10;;;6.10;99.90;;;;;;5001814;28;20681;-63
2023/11/22 04:18:14;;;;;;;5.00;3.43;;;6.10;99.90;;;;;;5004990;28;20207;-62
2023/11/22 04:20:40;;;;;;;4.40;3.13;;;6.10;99.90;;;;;;5004648;28;20525;-62
2023/11/22 04:23:10;;;;;;;4.10;3.30;;;6.10;99.90;;;;;;5001381;28;20227;-62
2023/11/22 04:25:39;;;;;;;4.27;3.20;;;6.00;99.90;;;;;;5001250;28;20578;-62
2023/11/22 04:28:08;;;;;;;3.20;2.90;;;5.90;99.90;;;;;;5004246;28;20297;-63
2023/11/22 04:30:35;;;;;;;4.53;3.37;;;5.80;99.90;;;;;;5004840;28;20214;-61
2023/11/22 04:33:02;;;;;;;3.93;3.17;;;5.80;99.90;;;;;;5002652;28;20218;-62
2023/11/22 04:35:29;;;;;;;5.50;4.07;;;5.70;99.90;;;;;;5001520;28;20262;-62
2023/11/22 04:37:56;;;;;;;3.50;2.93;;;5.60;99.90;;;;;;5003410;28;20204;-61
2023/11/22 04:40:22;;;;;;;4.03;3.47;;;5.60;99.90;;;;;;5004494;28;20313;-62
2023/11/22 04:42:50;;;;;;;6.03;3.47;;;5.50;99.90;;;;;;5003967;28;20222;-59
2023/11/22 04:45:17;;;;;;;4.70;3.30;;;5.40;99.90;;;;;;5001436;28;20366;-61
2023/11/22 04:47:44;;;;;;;4.20;3.17;;;5.40;99.90;;;;;;5001588;28;20301;-61
2023/11/22 04:50:11;;;;;;;3.37;2.87;;;5.30;99.90;;;;;;5005142;28;20229;-61
2023/11/22 04:52:39;;;;;;;4.37;3.03;;;5.20;99.90;;;;;;5004955;28;20199;-61
2023/11/22 04:55:06;;;;;;;3.27;2.97;;;5.20;99.90;;;;;;5001674;28;20200;-61
2023/11/22 04:57:33;;;;;;;4.20;2.93;;;5.20;99.90;;;;;;5002067;28;20286;-62
2023/11/22 05:00:03;;;;;;;4.07;3.30;;;5.20;99.90;;;;;;5003784;28;20736;-62
2023/11/22 05:02:30;;;;;;;5.57;2.90;;;5.30;99.90;;;;;;5005107;28;20218;-61
2023/11/22 05:04:56;;;;;;;5.73;3.13;;;5.30;99.90;;;;;;5003248;28;20211;-61
2023/11/22 05:07:23;;;;;;;3.97;3.57;;;5.30;99.90;;;;;;5002344;28;20290;-62
2023/11/22 05:09:50;;;;;;;3.90;3.30;;;5.40;99.90;;;;;;5003016;28;20247;-60
2023/11/22 05:12:17;;;;;;;3.80;3.27;;;5.50;99.90;;;;;;5009697;28;20209;-62
2023/11/22 05:14:45;;;;;;;3.40;3.10;;;5.60;99.90;;;;;;5017352;28;20219;-62
2023/11/22 05:17:13;;;;;;;5.03;3.30;;;5.70;99.90;;;;;;5015784;28;20203;-60
2023/11/22 05:19:40;;;;;;;3.77;3.20;;;5.70;99.90;;;;;;5015478;28;20227;-62
2023/11/22 05:22:07;;;;;;;6.43;3.30;;;5.70;99.90;;;;;;5019337;28;20242;-60
2023/11/22 05:24:34;;;;;;;4.27;3.37;;;5.80;99.90;;;;;;5019818;28;20217;-60
2023/11/22 05:27:01;;;;;;;4.93;3.23;;;5.80;99.90;;;;;;5017641;28;20206;-62
2023/11/22 05:29:28;;;;;;;3.33;2.97;;;5.80;99.90;;;;;;5013689;28;20238;-61
2023/11/22 05:31:55;;;;;;;3.43;3.07;;;5.90;99.90;;;;;;5022356;28;20203;-61
2023/11/22 05:34:23;;;;;;;3.93;3.17;;;6.00;99.90;;;;;;5013720;28;20203;-62
2023/11/22 05:36:50;;;;;;;3.73;3.30;;;6.10;99.90;;;;;;5015185;28;20219;-61
2023/11/22 05:39:17;;;;;;;4.30;3.10;;;6.20;99.90;;;;;;5015958;28;20223;-61
2023/11/22 05:41:44;;;;;;;3.57;3.00;;;6.30;99.90;;;;;;5013332;28;20796;-62
2023/11/22 05:44:11;;;;;;;4.03;3.40;;;6.30;99.90;;;;;;5010464;28;20211;-61
2023/11/22 05:46:38;;;;;;;5.27;3.70;;;6.30;99.90;;;;;;5014510;28;20226;-61
2023/11/22 05:49:05;;;;;;;5.13;2.87;;;6.20;99.90;;;;;;5010758;28;20720;-62
2023/11/22 05:51:33;;;;;;;3.47;3.17;;;6.10;99.90;;;;;;5010672;28;20523;-62
2023/11/22 05:54:00;;;;;;;3.50;3.10;;;6.10;99.90;;;;;;5009926;28;20238;-62
2023/11/22 05:56:27;;;;;;;4.00;3.37;;;6.10;99.90;;;;;;5008442;28;20585;-62
2023/11/22 05:58:53;;;;;;;3.67;3.20;;;6.10;99.90;;;;;;5006895;28;20231;-63
2023/11/22 06:01:20;;;;;;;4.37;3.17;;;6.10;99.90;;;;;;5004138;28;20208;-64
2023/11/22 06:03:48;;;;;;;4.80;3.30;;;6.20;99.90;;;;;;5004029;28;20218;-60
2023/11/22 06:06:15;;;;;;;4.60;3.43;;;6.30;99.90;;;;;;5007706;28;20294;-60
2023/11/22 06:08:43;;;;;;;4.83;3.70;;;6.20;99.90;;;;;;5007445;28;20234;-62
2023/11/22 06:11:10;;;;;;;3.77;3.43;;;6.30;99.90;;;;;;5003846;28;20307;-61
2023/11/22 06:13:36;;;;;;;4.23;3.40;;;6.30;99.90;;;;;;5004265;28;20295;-62
2023/11/22 06:16:03;;;;;;;3.47;3.17;;;6.30;99.90;;;;;;5006236;28;20212;-60
2023/11/22 06:18:30;;;;;;;4.20;3.43;;;6.30;99.90;;;;;;5007099;28;20254;-62
2023/11/22 06:20:57;;;;;;;4.23;3.43;;;6.30;99.90;;;;;;5005857;28;20218;-61
2023/11/22 06:23:24;;;;;;;4.67;3.37;;;6.30;99.90;;;;;;5003681;28;20222;-61
2023/11/22 06:25:52;;;;;;;4.40;3.40;;;6.20;99.90;;;;;;5003058;28;20548;-61
2023/11/22 06:28:18;;;;;;;4.03;3.40;;;6.30;99.90;;;;;;5006684;28;20214;-63
2023/11/22 06:30:45;;;;;;;5.07;4.00;;;6.30;99.90;;;;;;5006312;28;20207;-60
2023/11/22 06:33:12;;;;;;;5.70;4.27;;;6.40;99.90;;;;;;5006283;28;20218;-62
2023/11/22 06:35:38;;;;;;;5.30;3.57;;;6.50;99.90;;;;;;5006132;28;20226;-62
2023/11/22 06:38:05;;;;;;;4.30;3.73;;;6.60;99.90;;;;;;5003471;28;20203;-61
2023/11/22 06:40:32;;;;;;;6.27;4.00;;;6.70;99.90;;;;;;5002611;28;20226;-61
2023/11/22 06:43:00;;;;;;;4.17;3.23;;;6.70;99.90;;;;;;5004259;28;20231;-62
2023/11/22 06:45:27;;;;;;;4.27;3.80;;;6.60;99.90;;;;;;5005951;28;20199;-63
2023/11/22 06:47:53;;;;;;;5.37;4.80;;;6.70;99.90;;;;;;5005026;28;20219;-61
2023/11/22 06:50:20;;;;;;;5.23;4.10;;;6.70;99.90;;;;;;5002556;28;20242;-60
2023/11/22 06:52:49;;;;;;;4.80;3.80;;;6.70;99.90;;;;;;5002387;28;20669;-59
2023/11/22 06:55:17;;;;;;;5.57;4.27;;;6.60;99.90;;;;;;5009566;28;20749;-62
2023/11/22 06:57:44;;;;;;;7.07;5.70;;;6.70;99.90;;;;;;5002802;28;20270;-62
2023/11/22 07:00:13;;;;;;;4.57;3.67;;;6.60;99.90;;;;;;5005250;28;20644;-62
2023/11/22 07:02:40;;;;;;;4.37;3.53;;;6.70;99.90;;;;;;5005730;28;20227;-62
2023/11/22 07:05:08;;;;;;;4.10;2.63;;;6.80;99.90;;;;;;5004193;28;20207;-62
2023/11/22 07:07:35;;;;;;;5.70;2.47;;;6.60;99.90;;;;;;5003699;28;20254;-62
2023/11/22 07:10:02;;;;;;;3.40;2.30;;;6.20;99.90;;;;;;5005184;28;20242;-60
2023/11/22 07:12:29;;;;;;;5.40;2.47;;;6.10;99.90;;;;;;5006845;28;20277;-62
2023/11/22 07:14:56;;;;;;;3.03;2.20;;;5.80;99.90;;;;;;5005690;28;20215;-62
2023/11/22 07:17:27;;;;;;;2.90;2.40;;;5.70;99.90;;;;;;5003200;28;20212;-60
2023/11/22 07:19:54;;;;;;;2.77;2.27;;;5.70;99.90;;;;;;5003997;28;20266;-61
2023/11/22 07:22:22;;;;;;;2.87;2.10;;;5.60;99.90;;;;;;5004416;28;20693;-61
2023/11/22 07:24:51;;;;;;;3.90;2.10;;;5.60;99.90;;;;;;5004712;28;20694;-62
2023/11/22 07:27:18;;;;;;;2.37;2.10;;;5.70;99.90;;;;;;5014196;28;20207;-60
2023/11/22 07:29:46;;;;;;;3.47;2.43;;;5.60;99.90;;;;;;5019179;28;20248;-63
2023/11/22 07:32:13;;;;;;;7.10;2.63;;;5.60;99.90;;;;;;5004350;28;20249;-61
2023/11/22 07:34:42;;;;;;;3.70;2.90;;;5.50;99.90;;;;;;5003110;28;20222;-61
2023/11/22 07:37:09;;;;;;;3.50;2.90;;;5.30;99.90;;;;;;5005330;28;20222;-62
2023/11/22 07:39:36;;;;;;;7.80;4.60;;;5.20;99.90;;;;;;5006389;28;20223;-62
2023/11/22 07:42:03;;;;;;;3.77;2.97;;;5.10;99.90;;;;;;5003817;28;20314;-63
2023/11/22 07:44:32;;;;;;;5.67;3.87;;;5.20;99.90;;;;;;5002530;28;20208;-67
2023/11/22 07:47:00;;;;;;;3.10;2.77;;;5.30;99.90;;;;;;5003434;28;20203;-61
2023/11/22 07:49:27;;;;;;;4.77;3.30;;;5.40;99.90;;;;;;5005599;28;20594;-62
2023/11/22 07:51:56;;;;;;;3.70;2.90;;;5.50;99.90;;;;;;5004810;28;20211;-62
2023/11/22 07:54:23;;;;;;;3.17;2.80;;;5.40;99.90;;;;;;5001920;28;20231;-62
2023/11/22 07:56:49;;;;;;;5.17;2.97;;;5.30;99.90;;;;;;5002253;28;20732;-62
2023/11/22 07:59:16;;;;;;;4.33;3.13;;;5.20;99.90;;;;;;5006034;28;20219;-59
2023/11/22 08:01:44;;;;;;;3.60;2.53;;;5.30;99.90;;;;;;5005558;28;20207;-61
2023/11/22 08:04:11;;;;;;;4.97;3.07;;;5.20;99.90;;;;;;5002660;28;20503;-63
2023/11/22 08:06:38;;;;;;;3.57;2.90;;;5.30;99.90;;;;;;5001923;28;20854;-63
2023/11/22 08:09:08;;;;;;;5.93;3.37;;;5.40;99.90;;;;;;5004011;28;20587;-61
2023/11/22 08:11:35;;;;;;;4.07;3.10;;;5.40;99.90;;;;;;5005732;28;20298;-62
2023/11/22 08:14:02;;;;;;;3.63;2.83;;;5.40;99.90;;;;;;5003364;28;20199;-62
2023/11/22 08:16:29;;;;;;;5.57;3.03;;;5.40;99.90;;;;;;5001512;28;20692;-62
2023/11/22 08:18:56;;;;;;;4.00;3.10;;;5.40;99.90;;;;;;5002569;28;20262;-60
2023/11/22 08:21:23;;;;;;;4.23;3.37;;;5.30;99.90;;;;;;5005231;28;20246;-61
2023/11/22 08:23:50;;;;;;;4.93;3.43;;;5.30;99.90;;;;;;5005527;28;20229;-61
2023/11/22 08:26:18;;;;;;;4.03;3.30;;;5.40;99.90;;;;;;5009853;28;20200;-62
2023/11/22 08:28:44;;;;;;;3.87;2.97;;;5.30;99.90;;;;;;5001622;28;20230;-61
2023/11/22 08:31:11;;;;;;;3.93;2.80;;;5.40;99.90;;;;;;5004768;28;20676;-61
2023/11/22 08:33:38;;;;;;;4.37;3.03;;;5.40;99.90;;;;;;5005310;28;20577;-62
2023/11/22 08:36:06;;;;;;;4.83;3.33;;;5.40;99.90;;;;;;5002786;28;20301;-61
2023/11/22 08:38:33;;;;;;;5.67;3.00;;;5.30;99.90;;;;;;5002014;28;20251;-61
2023/11/22 08:41:02;;;;;;;4.30;3.13;;;5.30;99.90;;;;;;5003212;28;20250;-61
2023/11/22 08:43:31;;;;;;;4.70;3.40;;;5.10;99.90;;;;;;5005225;28;20219;-62
2023/11/22 08:45:58;;;;;;;8.37;3.80;;;5.10;99.90;;;;;;5003761;28;20217;-63
2023/11/22 08:48:25;;;;;;;6.50;3.37;;;5.10;99.90;;;;;;5001026;28;20208;-61
2023/11/22 08:50:53;;;;;;;3.97;3.03;;;5.10;99.90;;;;;;5002024;28;20302;-61
2023/11/22 08:53:20;;;;;;;5.67;3.07;;;5.20;99.90;;;;;;5005399;28;20227;-62
2023/11/22 08:55:47;;;;;;;6.50;3.60;;;5.20;99.90;;;;;;5005321;28;20645;-62
2023/11/22 08:58:14;;;;;;;3.97;2.97;;;5.20;99.90;;;;;;5003189;28;20203;-61
2023/11/22 09:00:44;;;;;;;3.87;3.00;;;5.20;99.90;;;;;;5006209;28;20231;-61
2023/11/22 09:03:12;;;;;;;4.67;3.03;;;5.30;99.90;;;;;;5008419;28;20230;-62
2023/11/22 09:05:39;;;;;;;4.70;3.87;;;5.40;99.90;;;;;;5010435;28;20215;-62
2023/11/22 09:08:06;;;;;;;4.93;3.40;;;5.50;99.90;;;;;;5016405;28;20215;-62
2023/11/22 09:10:33;;;;;;;5.67;3.67;;;5.50;99.90;;;;;;5011444;28;20614;-62
2023/11/22 09:13:00;;;;;;;3.80;3.37;;;5.60;99.90;;;;;;5002703;28;20212;-61
2023/11/22 09:15:29;;;;;;;4.10;3.50;;;5.70;99.90;;;;;;5004348;28;20207;-60
2023/11/22 09:17:57;;;;;;;5.83;3.87;;;5.70;99.90;;;;;;5004187;28;20646;-60
2023/11/22 09:20:24;;;;;;;5.00;3.43;;;5.70;99.90;;;;;;5001412;28;20223;-61
2023/11/22 09:22:52;;;;;;;4.17;3.33;;;5.70;99.90;;;;;;5000605;28;20227;-62
2023/11/22 09:25:21;;;;;;;4.90;3.23;;;5.60;99.90;;;;;;5004412;28;20203;-61
2023/11/22 09:27:51;;;;;;;5.17;3.70;;;5.60;99.90;;;;;;5003859;28;20210;-61
2023/11/22 09:30:32;;;;;;;5.23;3.73;;;5.70;99.90;;;;;;5003869;28;20700;-62
2023/11/22 09:33:00;;;;;;;4.63;3.60;;;5.70;99.90;;;;;;5003471;28;20209;-60
2023/11/22 09:35:29;;;;;;;4.27;3.50;;;5.70;99.90;;;;;;5000212;28;20204;-60
2023/11/22 09:37:55;;;;;;;4.37;3.43;;;5.80;99.90;;;;;;5000622;28;20212;-61
2023/11/22 09:40:23;;;;;;;6.57;3.53;;;6.00;99.90;;;;;;5003315;28;20226;-62
2023/11/22 09:42:52;;;;;;;8.37;3.97;;;6.20;99.90;;;;;;5003895;28;20238;-60
2023/11/22 09:45:20;;;;;;;3.87;3.43;;;6.20;99.90;;;;;;5000162;28;20214;-61
2023/11/22 09:47:47;;;;;;;4.43;3.50;;;6.30;99.90;;;;;;5000257;28;20208;-60
2023/11/22 09:50:33;;;;;;;4.97;3.50;;;6.40;99.90;;;;;;5002718;28;20338;-61
2023/11/22 09:53:03;;;;;;;4.87;3.37;;;6.40;99.90;;;;;;5002436;28;20210;-61
2023/11/22 09:55:31;;;;;;;4.73;3.50;;;6.50;99.90;;;;;;5000700;28;20212;-67
2023/11/22 09:58:00;;;;;;;6.30;3.47;;;6.50;99.90;;;;;;5001823;28;20211;-60
2023/11/22 10:00:30;;;;;;;4.00;3.60;;;6.50;99.90;;;;;;5004901;28;20587;-61
2023/11/22 10:02:57;;;;;;;5.10;3.53;;;6.50;99.90;;;;;;5006321;28;20223;-62
2023/11/22 10:05:28;;;;;;;4.17;3.40;;;6.50;99.90;;;;;;5003536;28;20212;-62
2023/11/22 10:07:56;;;;;;;5.57;3.60;;;6.50;99.90;;;;;;5004337;28;20261;-61
2023/11/22 10:10:26;;;;;;;4.50;3.60;;;6.40;99.90;;;;;;5007580;28;20235;-62
2023/11/22 10:12:56;;;;;;;4.43;3.87;;;6.40;99.90;;;;;;5007413;28;20279;-63
2023/11/22 10:15:24;;;;;;;4.77;4.00;;;6.50;99.90;;;;;;5007413;28;20228;-63
2023/11/22 10:17:57;;;;;;;4.23;3.80;;;6.50;99.90;;;;;;5007220;28;20235;-61
2023/11/22 10:20:25;;;;;;;5.27;3.80;;;6.60;99.90;;;;;;5007383;28;20230;-64
2023/11/22 10:22:53;;;;;;;6.63;4.23;;;6.80;99.90;;;;;;5006236;28;20245;-62
2023/11/22 10:25:22;;;;;;;4.43;3.40;;;6.90;99.90;;;;;;5010545;28;20639;-61
2023/11/22 10:27:51;;;;;;;4.17;3.73;;;7.00;99.90;;;;;;5002521;28;20215;-63
2023/11/22 10:30:18;;;;;;;5.30;4.07;;;6.90;99.90;;;;;;5005935;28;20223;-66
2023/11/22 10:32:45;;;;;;;4.73;3.80;;;6.80;99.90;;;;;;5007421;28;20281;-61
2023/11/22 10:35:14;;;;;;;5.03;3.67;;;6.60;99.90;;;;;;5004669;28;20664;-60
2023/11/22 10:37:44;;;;;;;4.47;3.77;;;6.50;99.90;;;;;;5010896;28;20211;-62
2023/11/22 10:40:13;;;;;;;5.07;4.10;;;6.40;99.90;;;;;;5005301;28;20238;-61
2023/11/22 10:42:42;;;;;;;4.30;3.50;;;6.40;99.90;;;;;;5004894;28;20207;-62
2023/11/22 10:45:10;;;;;;;15.87;4.30;;;6.30;99.90;;;;;;5005304;28;20211;-62
2023/11/22 10:47:39;;;;;;;11.40;4.00;;;6.40;99.90;;;;;;5004720;28;20211;-61
2023/11/22 10:50:08;;;;;;;5.40;3.90;;;6.50;99.90;;;;;;5009131;28;20259;-62
2023/11/22 10:52:36;;;;;;;5.33;3.80;;;6.60;99.90;;;;;;5012895;28;20214;-62
2023/11/22 10:55:07;;;;;;;7.40;4.13;;;6.70;99.90;;;;;;5005906;28;20230;-64
2023/11/22 10:57:37;;;;;;;8.03;4.10;;;6.90;99.90;;;;;;5002590;28;20208;-63
2023/11/22 11:00:07;;;;;;;4.43;3.77;;;7.00;99.90;;;;;;5003518;28;20227;-62
2023/11/22 11:02:38;;;;;;;5.53;4.00;;;7.10;99.90;;;;;;5005397;28;20203;-63
2023/11/22 11:05:15;;;;;;;5.30;3.70;;;7.30;99.90;;;;;;5003793;28;20723;-64
2023/11/22 11:07:49;;;;;;;4.47;3.33;;;7.50;99.90;;;;;;5001831;28;20233;-64
2023/11/22 11:10:20;;;;;;;5.03;3.90;;;7.70;99.90;;;;;;5004009;28;20274;-63
2023/11/22 11:12:47;;;;;;;6.90;4.00;;;7.80;99.90;;;;;;5005606;28;20207;-64
2023/11/22 11:15:15;;;;;;;6.47;4.40;;;7.70;99.90;;;;;;5002560;28;20213;-62
2023/11/22 11:17:44;;;;;;;6.47;3.80;;;7.50;99.90;;;;;;5002922;28;20298;-63
2023/11/22 11:20:13;;;;;;;4.60;3.70;;;7.40;99.90;;;;;;5004781;28;20255;-63
2023/11/22 11:22:40;;;;;;;5.23;3.63;;;7.30;99.90;;;;;;5005111;28;20215;-64
2023/11/22 11:25:08;;;;;;;4.60;3.90;;;7.30;99.90;;;;;;5003166;28;20269;-62
2023/11/22 11:27:36;;;;;;;4.30;3.70;;;7.30;99.90;;;;;;5001770;28;20670;-61
2023/11/22 11:30:30;;;;;;;7.83;4.10;;;7.40;99.90;;;;;;5002336;28;20293;-61
2023/11/22 11:32:59;;;;;;;4.93;3.80;;;7.50;99.90;;;;;;5004610;28;20591;-64
2023/11/22 11:35:38;;;;;;;5.07;3.87;;;7.50;99.90;;;;;;5001433;28;20207;-61
2023/11/22 11:38:08;;;;;;;6.10;4.20;;;7.40;99.90;;;;;;5002428;28;20701;-61
2023/11/22 11:40:36;;;;;;;6.77;4.00;;;7.40;99.90;;;;;;5004775;28;20211;-62
2023/11/22 11:43:03;;;;;;;4.70;3.97;;;7.40;99.90;;;;;;5003731;28;20235;-64
2023/11/22 11:45:31;;;;;;;4.20;3.50;;;7.40;99.90;;;;;;5000893;28;20203;-61
2023/11/22 11:47:59;;;;;;;5.57;3.40;;;7.40;99.90;;;;;;5001661;28;20265;-61
2023/11/22 11:50:26;;;;;;;4.43;3.30;;;7.40;99.90;;;;;;5004390;28;20223;-60
2023/11/22 11:52:53;;;;;;;5.70;3.90;;;7.30;99.90;;;;;;5004762;28;20305;-62
2023/11/22 11:55:20;;;;;;;3.97;3.13;;;7.00;99.90;;;;;;5001417;28;20204;-61
2023/11/22 11:57:47;;;;;;;3.83;3.27;;;6.80;99.90;;;;;;5001878;28;20208;-60
2023/11/22 12:00:15;;;;;;;4.53;3.43;;;6.70;99.90;;;;;;5004060;28;20645;-59
2023/11/22 12:02:41;;;;;;;4.53;2.93;;;6.70;99.90;;;;;;5004497;28;20211;-63
2023/11/22 12:05:09;;;;;;;4.30;3.50;;;6.80;99.90;;;;;;5002673;28;20241;-62
2023/11/22 12:07:36;;;;;;;4.70;3.67;;;6.90;99.90;;;;;;5001206;28;20258;-63
2023/11/22 12:10:05;;;;;;;3.63;3.23;;;6.90;99.90;;;;;;5001738;28;20300;-62
2023/11/22 12:12:32;;;;;;;5.83;3.13;;;6.90;99.90;;;;;;5004042;28;20253;-61
2023/11/22 12:14:59;;;;;;;3.83;2.93;;;6.90;99.90;;;;;;5003877;28;20207;-61
2023/11/22 12:17:27;;;;;;;3.57;2.90;;;6.90;99.90;;;;;;5001119;28;20214;-61
2023/11/22 12:19:54;;;;;;;4.63;3.23;;;6.70;99.90;;;;;;5001474;28;20362;-62
2023/11/22 12:22:22;;;;;;;5.90;3.43;;;6.60;99.90;;;;;;5004172;28;20261;-61
2023/11/22 12:24:49;;;;;;;4.50;3.60;;;6.50;99.90;;;;;;5004515;28;20226;-59
2023/11/22 12:27:16;;;;;;;4.27;3.60;;;6.50;99.90;;;;;;5002626;28;20238;-60
2023/11/22 12:29:42;;;;;;;3.50;3.00;;;6.40;99.90;;;;;;5001714;28;20239;-59
2023/11/22 12:32:09;;;;;;;5.63;3.50;;;6.30;99.90;;;;;;5003473;28;20212;-62
2023/11/22 12:34:36;;;;;;;3.50;3.10;;;6.40;99.90;;;;;;5005456;28;20199;-61
2023/11/22 12:37:04;;;;;;;5.63;4.00;;;6.30;99.90;;;;;;5004957;28;20211;-60
2023/11/22 12:39:32;;;;;;;5.53;3.93;;;6.30;99.90;;;;;;5001430;28;20236;-61
2023/11/22 12:41:59;;;;;;;4.70;4.00;;;6.20;99.90;;;;;;5001593;28;20281;-61
2023/11/22 12:44:25;;;;;;;6.33;4.73;;;6.30;99.90;;;;;;5004815;28;20247;-60
2023/11/22 12:46:56;;;;;;;4.83;3.43;;;6.40;99.90;;;;;;5004059;28;20214;-61
2023/11/22 12:49:24;;;;;;;7.37;4.87;;;6.50;99.90;;;;;;5004420;28;20273;-61
2023/11/22 12:51:51;;;;;;;13.27;9.50;;;6.50;99.90;;;;;;5004447;28;20611;-62
2023/11/22 12:54:21;;;;;;;3.70;3.27;;;6.50;99.90;;;;;;5001598;28;20698;-60
2023/11/22 12:56:54;;;;;;;3.90;3.37;;;6.50;99.90;;;;;;5005307;28;20238;-63
2023/11/22 12:59:21;;;;;;;4.97;3.93;;;6.40;99.90;;;;;;5000984;28;20300;-61